Time;durP1;ratioP1;P1;durP2;ratioP2;P2;SDS_P1;SDS_P2;PMS_P1;PMS_P2;Temp;Humidity;BMP_temperature;BMP_pressure;BME280_temperature;BME280_humidity;BME280_pressure;Samples;Min_cycle;Max_cycle;Signal;HPM_P1;HPM_P2
2022/06/23 00:02:23;;;;;;;0.60;0.35;;;;;;;28.06;52.21;98845.19;5112594;27;20147;-59
2022/06/23 00:04:52;;;;;;;0.65;0.40;;;;;;;28.08;51.99;98841.97;5123922;27;20436;-59
2022/06/23 00:07:31;;;;;;;0.45;0.32;;;;;;;28.07;52.15;98832.72;5111753;28;20140;-59
2022/06/23 00:09:59;;;;;;;0.68;0.50;;;;;;;28.07;52.14;98829.09;5129693;27;20040;-58
2022/06/23 00:12:38;;;;;;;0.88;0.40;;;;;;;28.06;52.13;98831.13;5125483;28;20069;-59
2022/06/23 00:15:04;;;;;;;1.17;0.52;;;;;;;28.07;52.25;98829.91;5100259;27;20092;-59
2022/06/23 00:17:32;;;;;;;0.93;0.50;;;;;;;28.06;52.17;98833.94;5128418;27;20046;-59
2022/06/23 00:20:19;;;;;;;0.77;0.50;;;;;;;28.05;52.39;98831.56;5132356;28;20039;-59
2022/06/23 00:22:58;;;;;;;1.10;0.47;;;;;;;28.06;52.21;98819.09;5108184;28;20051;-59
2022/06/23 00:25:29;;;;;;;0.52;0.40;;;;;;;28.07;52.51;98827.09;5132648;28;20059;-59
2022/06/23 00:27:55;;;;;;;0.55;0.35;;;;;;;28.08;52.36;98819.47;5131223;28;20039;-59
2022/06/23 00:30:26;;;;;;;0.75;0.43;;;;;;;28.07;52.25;98829.09;5130681;28;20035;-59
2022/06/23 00:32:51;;;;;;;1.58;0.60;;;;;;;28.07;52.17;98829.09;5113837;27;20062;-59
2022/06/23 00:35:18;;;;;;;0.47;0.35;;;;;;;28.06;52.08;98830.34;5114476;27;20051;-59
2022/06/23 00:37:47;;;;;;;1.08;0.60;;;;;;;28.03;52.02;98829.22;5117502;28;20046;-59
2022/06/23 00:40:14;;;;;;;0.88;0.50;;;;;;;28.06;52.06;98827.53;5103677;28;20507;-59
2022/06/23 00:43:02;;;;;;;0.73;0.43;;;;;;;28.06;52.11;98833.16;5125814;28;20126;-59
2022/06/23 00:45:40;;;;;;;0.93;0.43;;;;;;;28.05;52.23;98825.94;5128799;28;20116;-59
2022/06/23 00:48:11;;;;;;;0.93;0.50;;;;;;;28.06;52.00;98821.91;5103033;28;20055;-59
2022/06/23 00:50:49;;;;;;;3.65;0.80;;;;;;;28.04;52.09;98822.34;5112880;28;20052;-60
2022/06/23 00:53:20;;;;;;;2.42;0.70;;;;;;;28.04;52.09;98830.00;5128879;28;20037;-58
2022/06/23 00:55:52;;;;;;;0.85;0.50;;;;;;;28.04;52.17;98815.94;5108834;28;20432;-59
2022/06/23 00:58:38;;;;;;;0.73;0.50;;;;;;;28.04;52.12;98816.72;5111329;28;20051;-59
2022/06/23 01:01:31;;;;;;;0.85;0.50;;;;;;;28.04;51.97;98821.56;5119290;28;20521;-59
2022/06/23 01:04:21;;;;;;;1.98;0.60;;;;;;;28.02;51.96;98810.75;5117417;27;20059;-60
2022/06/23 01:06:57;;;;;;;1.38;0.60;;;;;;;28.04;52.18;98815.94;5099433;28;20043;-59
2022/06/23 01:09:31;;;;;;;1.00;0.50;;;;;;;28.03;52.16;98814.38;5134488;27;20058;-59
2022/06/23 01:12:25;;;;;;;0.90;0.60;;;;;;;28.04;52.17;98807.50;5130004;27;20138;-59
2022/06/23 01:15:17;;;;;;;0.82;0.32;;;;;;;28.02;52.21;98812.78;5129181;28;20032;-59
2022/06/23 01:17:50;;;;;;;1.08;0.60;;;;;;;28.04;52.13;98819.53;5110539;28;20134;-59
2022/06/23 01:20:23;;;;;;;0.93;0.35;;;;;;;28.05;51.98;98811.91;5106429;28;20054;-59
2022/06/23 01:22:54;;;;;;;1.55;0.57;;;;;;;28.03;52.15;98815.16;5099586;28;20117;-59
2022/06/23 01:25:43;;;;;;;0.95;0.63;;;;;;;28.03;51.91;98817.19;5110529;27;20075;-59
2022/06/23 01:28:15;;;;;;;1.00;0.60;;;;;;;28.00;52.11;98810.38;5107373;28;20031;-59
2022/06/23 01:31:05;;;;;;;0.75;0.50;;;;;;;28.01;52.03;98803.56;5104651;27;20051;-59
2022/06/23 01:33:39;;;;;;;1.13;0.60;;;;;;;28.04;51.83;98807.50;5107537;27;20024;-59
2022/06/23 01:36:17;;;;;;;1.40;0.70;;;;;;;28.01;52.26;98808.41;5101994;28;20406;-59
2022/06/23 01:39:04;;;;;;;0.98;0.55;;;;;;;28.01;51.99;98809.19;5110776;28;20050;-60
2022/06/23 01:41:42;;;;;;;0.85;0.60;;;;;;;28.01;52.05;98811.22;5109806;27;20100;-59
2022/06/23 01:44:18;;;;;;;0.68;0.40;;;;;;;28.01;52.00;98808.41;5110150;27;20049;-59
2022/06/23 01:46:48;;;;;;;0.85;0.40;;;;;;;27.97;52.10;98806.44;5129190;27;20049;-59
2022/06/23 01:49:26;;;;;;;0.63;0.43;;;;;;;28.00;52.10;98806.78;5111124;28;20079;-59
2022/06/23 01:52:01;;;;;;;1.92;0.60;;;;;;;28.00;52.00;98806.78;5127235;27;20051;-59
2022/06/23 01:54:27;;;;;;;0.60;0.50;;;;;;;27.98;51.94;98805.22;5108148;27;20043;-59
2022/06/23 01:57:01;;;;;;;0.70;0.50;;;;;;;27.98;51.96;98810.03;5089113;28;20519;-59
2022/06/23 01:59:51;;;;;;;0.82;0.50;;;;;;;28.00;51.77;98806.78;5111040;28;20044;-59
2022/06/23 02:02:31;;;;;;;1.58;0.63;;;;;;;28.00;51.91;98812.41;5122433;28;20046;-59
2022/06/23 02:05:11;;;;;;;0.52;0.38;;;;;;;27.98;51.69;98812.84;5129155;27;20051;-59
2022/06/23 02:07:47;;;;;;;0.75;0.50;;;;;;;27.98;51.77;98816.47;5135357;27;20062;-59
2022/06/23 02:10:21;;;;;;;0.60;0.47;;;;;;;27.99;51.80;98811.63;5129535;27;20568;-59
2022/06/23 02:12:55;;;;;;;0.73;0.50;;;;;;;27.99;51.83;98814.44;5105277;28;20193;-59
2022/06/23 02:15:34;;;;;;;0.43;0.40;;;;;;;27.98;51.73;98810.84;5108709;28;20047;-59
2022/06/23 02:18:02;;;;;;;0.88;0.50;;;;;;;27.98;51.78;98816.47;5081043;28;20076;-59
2022/06/23 02:20:33;;;;;;;1.20;0.52;;;;;;;28.00;51.52;98812.41;5087709;28;20059;-58
2022/06/23 02:23:16;;;;;;;0.68;0.40;;;;;;;27.98;51.89;98821.28;5089517;28;20071;-59
2022/06/23 02:25:48;;;;;;;;;;;;;;;28.02;51.55;98819.19;5087871;28;20039;-57
2022/06/23 02:28:24;;;;;;;1.17;0.60;;;;;;;28.02;51.39;98824.03;5093188;28;19915;-57
2022/06/23 02:31:06;;;;;;;0.88;0.50;;;;;;;27.97;51.47;98820.50;5098479;28;20044;-59
2022/06/23 02:33:41;;;;;;;0.80;0.50;;;;;;;27.96;51.55;98824.56;5106320;28;20036;-57
2022/06/23 02:36:24;;;;;;;1.05;0.40;;;;;;;27.95;51.52;98825.00;5108928;28;20400;-58
2022/06/23 02:38:54;;;;;;;0.82;0.52;;;;;;;27.96;51.47;98820.94;5100682;28;20150;-59
2022/06/23 02:41:29;;;;;;;0.77;0.50;;;;;;;27.94;51.45;98815.78;5105895;28;20054;-59
2022/06/23 02:44:12;;;;;;;0.88;0.50;;;;;;;27.94;51.48;98814.97;5097860;28;20044;-59
2022/06/23 02:47:32;;;;;;;0.95;0.50;;;;;;;27.95;51.42;98808.13;5081304;28;20050;-58
2022/06/23 02:50:03;;;;;;;0.60;0.40;;;;;;;27.95;51.19;98816.56;5051275;28;20060;-59
2022/06/23 02:52:54;;;;;;;1.35;0.65;;;;;;;27.94;51.32;98820.59;5045349;28;20048;-58
2022/06/23 02:55:36;;;;;;;1.23;0.60;;;;;;;27.93;51.34;98816.19;5045422;28;20049;-59
2022/06/23 02:58:12;;;;;;;0.67;0.40;;;;;;;27.92;51.24;98818.22;5042956;28;20097;-59
2022/06/23 03:00:41;;;;;;;1.02;0.60;;;;;;;27.91;51.39;98822.25;5041703;28;20057;-59
2022/06/23 03:03:20;;;;;;;0.43;0.43;;;;;;;27.91;51.30;98821.47;5045897;28;20079;-59
2022/06/23 03:05:59;;;;;;;0.55;0.40;;;;;;;27.90;51.34;98820.66;5042836;28;20040;-59
2022/06/23 03:08:39;;;;;;;1.00;0.30;;;;;;;27.93;51.32;98824.63;5044216;28;20579;-59
2022/06/23 03:11:14;;;;;;;1.27;0.60;;;;;;;27.92;51.10;98826.63;5044967;28;20051;-60
2022/06/23 03:13:51;;;;;;;0.50;0.40;;;;;;;27.93;51.16;98827.44;5044916;28;20057;-61
2022/06/23 03:16:17;;;;;;;0.60;0.40;;;;;;;27.94;51.11;98832.63;5048078;28;20040;-58
2022/06/23 03:18:58;;;;;;;1.20;0.60;;;;;;;27.93;51.22;98835.88;5051610;28;20071;-59
2022/06/23 03:21:30;;;;;;;1.25;0.60;;;;;;;27.95;51.18;98839.03;5045877;28;20628;-59
2022/06/23 03:24:21;;;;;;;0.55;0.50;;;;;;;27.91;51.18;98839.13;5077167;28;20276;-59
2022/06/23 03:26:55;;;;;;;0.57;0.40;;;;;;;27.90;50.92;98837.53;5078714;28;20511;-59
2022/06/23 03:29:35;;;;;;;1.00;0.50;;;;;;;27.91;51.03;98833.50;5080942;28;20032;-59
2022/06/23 03:32:01;;;;;;;0.60;0.50;;;;;;;27.93;51.09;98842.31;5102035;28;20541;-60
2022/06/23 03:34:42;;;;;;;0.73;0.40;;;;;;;27.90;51.21;98837.53;5089400;28;20135;-59
2022/06/23 03:37:16;;;;;;;0.68;0.43;;;;;;;27.92;51.00;98840.69;5092206;28;20487;-59
2022/06/23 03:42:44;;;;;;;0.70;0.40;;;;;;;27.92;50.89;98837.88;5103983;28;20062;-59
2022/06/23 03:45:26;;;;;;;1.10;0.50;;;;;;;27.92;50.73;98837.88;5089652;28;20508;-59
2022/06/23 03:48:13;;;;;;;0.95;0.60;;;;;;;27.92;50.95;98837.88;5087785;28;20106;-59
2022/06/23 03:50:49;;;;;;;0.63;0.35;;;;;;;27.93;50.96;98838.66;5100537;28;20040;-59
2022/06/23 03:53:29;;;;;;;1.48;0.43;;;;;;;27.90;51.02;98840.34;5104631;28;20438;-59
2022/06/23 03:56:04;;;;;;;0.50;0.30;;;;;;;27.88;51.00;98845.63;5106215;28;20031;-59
2022/06/23 03:58:29;;;;;;;1.48;0.50;;;;;;;27.90;50.97;98845.97;5067534;28;20036;-59
2022/06/23 04:01:14;;;;;;;1.05;0.50;;;;;;;27.90;51.09;98853.63;5090054;28;20627;-59
2022/06/23 04:03:58;;;;;;;0.85;0.40;;;;;;;27.90;50.97;98854.41;5077150;28;20044;-59
2022/06/23 04:06:36;;;;;;;0.88;0.55;;;;;;;27.91;51.04;98855.19;5088051;28;20032;-59
2022/06/23 04:09:24;;;;;;;1.02;0.55;;;;;;;27.91;50.91;98860.81;5091506;28;20040;-60
2022/06/23 04:12:03;;;;;;;1.00;0.50;;;;;;;27.90;50.92;98862.03;5092824;28;20426;-59
2022/06/23 04:15:00;;;;;;;0.95;0.55;;;;;;;27.91;50.95;98860.81;5110891;28;20516;-60
2022/06/23 04:17:25;;;;;;;2.03;0.50;;;;;;;27.93;50.93;98866.78;5109277;28;20036;-59
2022/06/23 04:20:08;;;;;;;1.02;0.47;;;;;;;27.91;51.10;98855.97;5086546;28;20047;-59
2022/06/23 04:22:41;;;;;;;1.05;0.43;;;;;;;27.92;50.97;98851.94;5093690;28;20044;-59
2022/06/23 04:25:12;;;;;;;0.73;0.40;;;;;;;27.92;51.02;98856.78;5112340;28;20044;-59
2022/06/23 04:27:50;;;;;;;0.68;0.47;;;;;;;27.91;51.07;98855.19;5111812;28;20126;-59
2022/06/23 04:30:25;;;;;;;0.80;0.50;;;;;;;27.91;51.12;98841.13;5068776;28;20032;-59
2022/06/23 04:32:51;;;;;;;1.00;0.60;;;;;;;27.91;51.09;98853.16;5090243;28;20619;-60
2022/06/23 04:35:22;;;;;;;0.75;0.50;;;;;;;27.91;51.17;98844.75;5088903;28;20043;-57
2022/06/23 04:38:00;;;;;;;0.65;0.40;;;;;;;27.92;51.23;98856.78;5104253;28;20032;-57
2022/06/23 04:40:32;;;;;;;0.45;0.40;;;;;;;27.92;51.23;98856.78;5076099;28;20096;-58
2022/06/23 04:43:04;;;;;;;0.60;0.43;;;;;;;27.92;51.01;98856.78;5087426;28;20068;-58
2022/06/23 04:45:37;;;;;;;1.30;0.60;;;;;;;27.90;51.27;98848.78;5093510;28;20040;-58
2022/06/23 04:48:10;;;;;;;0.70;0.50;;;;;;;27.90;51.07;98848.78;5091465;28;20036;-58
2022/06/23 04:51:04;;;;;;;1.00;0.50;;;;;;;27.91;51.18;98843.94;5083680;28;20036;-59
2022/06/23 04:53:52;;;;;;;0.88;0.60;;;;;;;27.91;50.93;98839.13;5102925;28;20054;-58
2022/06/23 04:56:48;;;;;;;1.27;0.65;;;;;;;27.91;51.17;98843.94;5085192;28;20055;-58
2022/06/23 04:59:32;;;;;;;0.75;0.52;;;;;;;27.92;51.11;98839.91;5082243;28;20109;-59
2022/06/23 05:02:03;;;;;;;0.45;0.30;;;;;;;27.92;51.06;98846.31;5089953;28;20059;-58
2022/06/23 05:04:38;;;;;;;1.00;0.50;;;;;;;27.92;51.29;98845.53;5107503;28;20126;-58
2022/06/23 05:07:12;;;;;;;0.75;0.50;;;;;;;27.93;51.20;98842.31;5104331;28;20514;-59
2022/06/23 05:09:41;;;;;;;0.80;0.45;;;;;;;27.93;51.22;98831.06;5088871;28;20048;-58
2022/06/23 05:12:21;;;;;;;0.47;0.38;;;;;;;27.95;51.22;98844.66;5091232;28;20082;-58
2022/06/23 05:14:55;;;;;;;0.77;0.50;;;;;;;27.96;51.13;98844.22;5076575;28;20102;-58
2022/06/23 05:17:25;;;;;;;1.02;0.70;;;;;;;27.98;51.01;98847.38;5090515;28;20048;-58
2022/06/23 05:19:58;;;;;;;1.08;0.50;;;;;;;28.00;51.19;98837.72;5090411;28;20048;-58
2022/06/23 05:22:27;;;;;;;1.85;0.70;;;;;;;27.97;51.11;98843.00;5091183;28;20040;-58
2022/06/23 05:24:53;;;;;;;1.10;0.60;;;;;;;27.97;51.14;98848.63;5092165;28;20040;-58
2022/06/23 05:27:24;;;;;;;1.27;0.50;;;;;;;27.98;51.23;98847.38;5110154;28;20044;-58
2022/06/23 05:29:57;;;;;;;1.10;0.65;;;;;;;27.97;51.31;98843.00;5102803;28;20048;-59
2022/06/23 05:32:41;;;;;;;1.15;0.52;;;;;;;27.98;51.38;98838.16;5090261;28;20044;-59
2022/06/23 05:35:17;;;;;;;1.92;0.63;;;;;;;28.01;51.32;98842.13;5070750;28;20059;-59
2022/06/23 05:37:52;;;;;;;0.65;0.40;;;;;;;27.99;51.63;98850.97;5108137;28;20403;-59
2022/06/23 05:40:33;;;;;;;1.45;0.60;;;;;;;28.01;51.60;98854.16;5110129;28;20871;-59
2022/06/23 05:43:01;;;;;;;9.43;0.88;;;;;;;28.03;51.42;98834.84;5107194;28;20047;-57
2022/06/23 05:45:47;;;;;;;5.65;0.80;;;;;;;28.03;51.69;98836.84;5108749;28;20564;-57
2022/06/23 05:48:23;;;;;;;11.57;1.30;;;;;;;28.03;51.78;98836.84;5108098;28;20039;-58
2022/06/23 05:51:10;;;;;;;7.82;0.93;;;;;;;28.04;51.65;98842.03;5105882;28;20050;-58
2022/06/23 05:53:56;;;;;;;16.00;1.40;;;;;;;28.05;51.45;98846.44;5101226;28;20039;-58
2022/06/23 05:56:33;;;;;;;5.00;1.13;;;;;;;28.03;51.45;98850.91;5110102;28;20100;-58
2022/06/23 05:59:18;;;;;;;14.70;1.50;;;;;;;28.03;51.58;98854.50;5091848;28;20076;-58
2022/06/23 06:02:03;;;;;;;4.97;0.95;;;;;;;28.04;51.79;98846.88;5103531;28;20516;-57
2022/06/23 06:04:34;;;;;;;6.13;0.75;;;;;;;27.95;52.03;98850.28;5109223;28;20127;-58
2022/06/23 06:06:59;;;;;;;4.57;0.98;;;;;;;27.86;52.48;98853.72;5109351;28;20093;-58
2022/06/23 06:09:36;;;;;;;9.30;0.90;;;;;;;27.75;52.91;98858.78;5106438;28;20031;-58
2022/06/23 06:12:17;;;;;;;5.55;1.42;;;;;;;27.70;52.88;98857.25;5107845;28;20050;-59
2022/06/23 06:14:49;;;;;;;1.73;0.60;;;;;;;27.70;53.05;98853.66;5093885;28;20511;-59
2022/06/23 06:17:25;;;;;;;5.20;1.00;;;;;;;27.69;53.29;98863.31;5094981;28;20047;-58
2022/06/23 06:19:53;;;;;;;3.47;0.77;;;;;;;27.68;53.11;98853.31;5089699;28;20977;-58
2022/06/23 06:22:30;;;;;;;2.65;0.80;;;;;;;27.65;53.42;98857.75;5103207;28;20040;-58
2022/06/23 06:25:00;;;;;;;2.63;0.80;;;;;;;27.64;53.23;98855.38;5092073;28;20064;-59
2022/06/23 06:27:26;;;;;;;3.05;0.73;;;;;;;27.66;53.19;98855.75;5093850;28;20039;-58
2022/06/23 06:29:52;;;;;;;2.45;0.80;;;;;;;27.67;53.26;98860.94;5074316;28;20097;-58
2022/06/23 06:32:37;;;;;;;2.78;0.80;;;;;;;27.67;53.23;98858.13;5098406;28;20043;-58
2022/06/23 06:35:15;;;;;;;1.90;0.80;;;;;;;27.70;53.25;98856.47;5106135;28;20046;-59
2022/06/23 06:37:47;;;;;;;1.83;0.70;;;;;;;27.66;53.44;98850.91;5096002;28;20040;-60
2022/06/23 06:40:13;;;;;;;1.80;0.70;;;;;;;27.67;53.32;98849.72;5094331;28;20048;-60
2022/06/23 06:42:48;;;;;;;6.50;1.65;;;;;;;27.61;52.71;98845.00;5105924;28;20040;-59
2022/06/23 06:45:20;;;;;;;13.73;3.00;;;;;;;27.37;53.41;98845.13;5106845;28;20047;-61
2022/06/23 06:47:46;;;;;;;18.13;5.85;;;;;;;27.14;53.93;98845.97;5089128;28;20078;-59
2022/06/23 06:50:14;;;;;;;16.58;5.07;;;;;;;27.01;54.01;98841.44;5071060;28;20036;-59
2022/06/23 06:52:40;;;;;;;16.23;3.60;;;;;;;26.96;54.43;98839.91;5088556;28;20035;-59
2022/06/23 06:55:11;;;;;;;13.32;3.60;;;;;;;26.89;54.24;98835.22;5092356;28;20054;-59
2022/06/23 06:57:42;;;;;;;13.23;3.25;;;;;;;26.82;54.97;98835.34;5092132;28;20173;-58
2022/06/23 07:00:17;;;;;;;13.00;2.78;;;;;;;26.75;54.52;98824.28;5081841;28;20590;-58
2022/06/23 07:02:53;;;;;;;16.02;3.08;;;;;;;26.73;54.28;98828.75;5084378;28;20118;-58
2022/06/23 07:05:21;;;;;;;16.67;2.88;;;;;;;26.71;54.38;98833.97;5091262;28;20403;-59
2022/06/23 07:07:55;;;;;;;10.73;2.60;;;;;;;26.64;54.96;98829.28;5100751;28;20052;-59
2022/06/23 07:10:41;;;;;;;14.05;3.13;;;;;;;26.62;54.48;98823.31;5103411;28;20067;-58
2022/06/23 07:13:18;;;;;;;13.63;2.63;;;;;;;26.56;54.87;98823.00;5089687;28;20084;-58
2022/06/23 07:15:50;;;;;;;14.50;3.00;;;;;;;26.52;54.84;98813.88;5072534;28;20113;-58
2022/06/23 07:18:27;;;;;;;13.23;3.42;;;;;;;26.49;54.89;98813.94;5095554;28;20139;-58
2022/06/23 07:20:59;;;;;;;13.00;4.57;;;;;;;26.54;55.55;98802.22;5081919;28;20052;-60
2022/06/23 07:23:40;;;;;;;16.42;3.65;;;;;;;26.55;55.30;98801.00;5096273;28;20059;-58
2022/06/23 07:26:42;;;;;;;9.55;2.50;;;;;;;26.51;55.35;98795.47;5082739;28;20047;-58
2022/06/23 07:29:28;;;;;;;14.93;3.00;;;;;;;26.48;55.33;98787.91;5075496;28;20040;-58
2022/06/23 07:32:14;;;;;;;12.00;2.60;;;;;;;26.46;55.64;98772.72;5078109;28;20085;-58
2022/06/23 07:34:51;;;;;;;9.43;2.30;;;;;;;26.50;55.22;98770.63;5091999;28;20039;-58
2022/06/23 07:37:41;;;;;;;10.63;2.60;;;;;;;26.46;54.85;98772.72;5086169;28;21815;-58
2022/06/23 07:40:08;;;;;;;13.48;2.97;;;;;;;26.46;55.15;98775.53;5092259;28;20070;-57
2022/06/23 07:42:55;;;;;;;12.27;2.90;;;;;;;26.48;54.02;98767.47;5088162;28;20039;-57
2022/06/23 07:45:46;;;;;;;20.95;4.72;;;;;;;26.54;54.12;98769.34;5100533;28;20240;-58
2022/06/23 07:48:11;;;;;;;22.48;5.53;;;;;;;26.68;53.99;98765.50;5079182;28;20144;-58
2022/06/23 07:50:37;;;;;;;14.43;4.93;;;;;;;26.73;54.00;98758.59;5078012;28;20124;-58
2022/06/23 07:53:04;;;;;;;18.33;4.82;;;;;;;26.76;54.63;98761.31;5082279;28;20064;-58
2022/06/23 07:55:40;;;;;;;16.30;4.00;;;;;;;26.87;54.34;98758.31;5094210;28;20055;-58
2022/06/23 07:58:07;;;;;;;15.40;3.20;;;;;;;26.91;54.00;98755.41;5067305;28;20662;-58
2022/06/23 08:00:37;;;;;;;12.18;3.50;;;;;;;26.96;53.47;98744.47;5102366;28;20056;-59
2022/06/23 08:03:27;;;;;;;19.75;3.50;;;;;;;26.99;53.20;98743.59;5102381;28;20051;-60
2022/06/23 08:05:58;;;;;;;10.95;2.95;;;;;;;27.02;53.20;98741.97;5085467;28;20105;-61
2022/06/23 08:08:29;;;;;;;17.92;3.35;;;;;;;27.04;53.23;98731.91;5087109;28;20127;-60
2022/06/23 08:13:56;;;;;;;16.73;3.33;;;;;;;27.09;53.09;98727.81;5056424;28;20044;-60
2022/06/23 08:19:14;;;;;;;15.90;3.05;;;;;;;27.08;53.00;98717.81;5094427;28;20054;-60
2022/06/23 08:21:46;;;;;;;11.32;2.72;;;;;;;27.08;53.19;98727.00;5086946;28;20040;-61
2022/06/23 08:24:23;;;;;;;16.65;2.80;;;;;;;27.15;52.63;98721.25;5078578;28;20132;-61
2022/06/23 08:27:12;;;;;;;12.50;2.53;;;;;;;27.20;52.89;98717.13;5076652;28;20051;-61
2022/06/23 08:29:42;;;;;;;13.10;3.17;;;;;;;27.23;52.92;98709.84;5087141;28;20050;-61
2022/06/23 08:32:08;;;;;;;12.18;2.88;;;;;;;27.21;52.86;98701.06;5103425;28;20444;-60
2022/06/23 08:34:35;;;;;;;13.90;3.60;;;;;;;27.20;53.14;98700.25;5097701;28;20035;-58
2022/06/23 08:37:08;;;;;;;14.20;2.80;;;;;;;27.31;53.18;98695.22;5086092;28;20132;-58
2022/06/23 08:39:44;;;;;;;12.27;3.00;;;;;;;27.33;53.00;98697.56;5078078;28;20747;-58
2022/06/23 08:42:24;;;;;;;9.95;2.95;;;;;;;27.38;52.78;98685.81;5087602;28;20127;-58
2022/06/23 08:45:02;;;;;;;8.35;2.47;;;;;;;27.40;52.92;98681.34;5086330;28;20045;-57
2022/06/23 08:47:43;;;;;;;8.20;2.17;;;;;;;27.43;52.89;98674.06;5105416;28;20097;-58
2022/06/23 08:50:34;;;;;;;12.20;2.53;;;;;;;27.46;52.77;98672.41;5085168;28;20657;-57
2022/06/23 08:53:05;;;;;;;9.30;2.60;;;;;;;27.50;52.68;98673.88;5096739;28;20394;-57
2022/06/23 08:55:54;;;;;;;8.88;2.08;;;;;;;27.52;52.78;98676.28;5108195;28;20051;-58
2022/06/23 08:58:46;;;;;;;6.97;1.98;;;;;;;27.53;52.49;98667.41;5104174;28;20074;-58
2022/06/23 09:01:19;;;;;;;8.25;2.53;;;;;;;27.56;52.36;98658.06;5101523;28;20151;-57
2022/06/23 09:03:59;;;;;;;9.38;2.30;;;;;;;27.57;52.38;98664.50;5072718;28;20033;-57
2022/06/23 09:06:56;;;;;;;6.82;2.17;;;;;;;27.58;52.44;98660.47;5097124;28;20074;-56
2022/06/23 09:09:48;;;;;;;6.78;1.90;;;;;;;27.60;52.18;98658.00;5101658;28;20114;-57
2022/06/23 09:12:23;;;;;;;6.50;1.80;;;;;;;27.63;52.16;98648.69;5089354;28;20040;-57
2022/06/23 09:15:14;;;;;;;4.95;1.92;;;;;;;27.63;52.18;98655.09;5090661;28;20127;-57
2022/06/23 09:17:48;;;;;;;6.95;1.80;;;;;;;27.65;52.16;98651.88;5088022;28;20061;-58
2022/06/23 09:20:32;;;;;;;7.03;1.92;;;;;;;27.69;52.07;98653.38;5085709;28;20136;-58
2022/06/23 09:23:34;;;;;;;5.68;1.80;;;;;;;27.71;52.07;98644.50;5099167;28;20044;-57
2022/06/23 09:26:11;;;;;;;5.75;1.60;;;;;;;27.71;52.01;98638.88;5088968;28;20062;-57
2022/06/23 09:28:55;;;;;;;4.95;1.60;;;;;;;27.71;51.96;98638.88;5085754;28;20266;-57
2022/06/23 09:31:41;;;;;;;6.07;1.65;;;;;;;27.74;51.83;98646.44;5095392;28;20423;-58
2022/06/23 09:34:09;;;;;;;4.00;1.42;;;;;;;27.78;51.79;98640.72;5085148;28;20130;-58
2022/06/23 09:37:07;;;;;;;3.97;1.60;;;;;;;27.77;52.02;98633.50;5081292;28;20050;-58
2022/06/23 09:39:38;;;;;;;5.00;1.52;;;;;;;27.80;51.75;98636.25;5085250;28;20407;-58
2022/06/23 09:42:24;;;;;;;5.88;1.50;;;;;;;27.80;51.83;98636.25;5082274;28;20052;-58
2022/06/23 09:45:28;;;;;;;4.75;1.63;;;;;;;27.83;51.78;98638.16;5058545;28;20485;-58
2022/06/23 09:48:30;;;;;;;5.38;1.45;;;;;;;27.85;51.88;98640.53;5052764;28;20506;-57
2022/06/23 09:51:24;;;;;;;5.40;1.65;;;;;;;27.89;51.73;98638.41;5062208;28;20396;-58
2022/06/23 09:54:15;;;;;;;3.42;1.13;;;;;;;27.89;51.57;98632.81;5056499;28;20596;-58
2022/06/23 09:56:41;;;;;;;4.38;1.42;;;;;;;27.89;51.39;98633.59;5102685;28;20461;-58
2022/06/23 09:59:51;;;;;;;4.22;1.40;;;;;;;27.89;51.45;98627.97;5080081;28;20098;-58
2022/06/23 10:02:32;;;;;;;4.70;1.10;;;;;;;27.92;51.41;98623.47;5038279;28;20046;-59
2022/06/23 10:05:59;;;;;;;4.57;1.27;;;;;;;27.91;51.22;98622.69;5036878;28;20102;-58
2022/06/23 10:08:39;;;;;;;5.50;1.40;;;;;;;27.94;51.15;98616.19;4965189;28;20090;-58
2022/06/23 10:11:30;;;;;;;5.15;1.52;;;;;;;27.98;50.76;98607.66;4998889;28;20039;-58
2022/06/23 10:14:22;;;;;;;3.45;1.15;;;;;;;27.96;50.81;98608.09;5060935;27;20036;-58
2022/06/23 10:17:08;;;;;;;5.70;1.30;;;;;;;27.97;50.70;98604.03;5105626;27;20101;-58
2022/06/23 10:19:52;;;;;;;7.07;1.48;;;;;;;28.02;50.73;98596.31;5100157;27;20043;-58
2022/06/23 10:22:29;;;;;;;3.30;1.30;;;;;;;28.04;50.67;98591.03;5099588;27;20044;-58
2022/06/23 10:25:18;;;;;;;4.10;1.30;;;;;;;28.03;50.66;98595.09;5098771;28;20044;-58
2022/06/23 10:27:46;;;;;;;2.45;1.15;;;;;;;28.02;50.62;98585.06;5102930;28;20682;-58
2022/06/23 10:30:23;;;;;;;7.05;1.35;;;;;;;28.03;50.73;98586.66;5103280;27;20044;-57
2022/06/23 10:33:04;;;;;;;3.00;1.33;;;;;;;28.06;50.49;98580.91;5106264;27;20039;-58
2022/06/23 10:35:51;;;;;;;3.95;1.30;;;;;;;28.07;50.75;98576.06;5109069;28;20050;-58
2022/06/23 10:38:54;;;;;;;6.10;1.52;;;;;;;28.07;50.65;98581.69;5098842;28;20047;-58
2022/06/23 10:41:31;;;;;;;3.88;1.45;;;;;;;28.09;50.45;98584.88;5101002;27;20534;-58
2022/06/23 10:44:20;;;;;;;5.25;1.40;;;;;;;28.11;50.36;98576.78;5101062;27;20051;-59
2022/06/23 10:47:01;;;;;;;8.85;1.40;;;;;;;28.07;50.21;98559.19;5101075;28;20055;-58
2022/06/23 10:49:30;;;;;;;5.05;1.48;;;;;;;28.11;50.23;98568.34;5095283;28;20043;-57
2022/06/23 10:52:20;;;;;;;5.43;1.40;;;;;;;28.08;50.06;98577.69;5094934;28;20061;-58
2022/06/23 10:55:00;;;;;;;4.00;1.50;;;;;;;28.09;49.89;98570.81;5104580;27;20048;-57
2022/06/23 10:57:37;;;;;;;4.28;1.52;;;;;;;28.07;50.00;98557.19;5101977;28;20079;-57
2022/06/23 11:00:16;;;;;;;6.30;1.38;;;;;;;28.09;49.96;98551.91;5106207;27;20450;-58
2022/06/23 11:03:21;;;;;;;4.93;1.40;;;;;;;28.06;49.72;98535.13;5103650;27;20076;-59
2022/06/23 11:06:08;;;;;;;6.47;1.90;;;;;;;28.07;49.62;98525.47;5098739;27;20138;-59
2022/06/23 11:08:47;;;;;;;6.75;1.67;;;;;;;28.08;49.70;98521.44;5103225;28;20050;-59
2022/06/23 11:11:22;;;;;;;5.95;1.58;;;;;;;28.08;49.69;98518.63;5104786;28;20052;-59
2022/06/23 11:14:39;;;;;;;5.60;1.73;;;;;;;28.06;49.10;98509.84;5100524;27;20059;-59
2022/06/23 11:17:19;;;;;;;7.70;1.60;;;;;;;28.04;48.45;98506.69;5036999;28;20050;-59
2022/06/23 11:19:44;;;;;;;7.22;1.75;;;;;;;28.05;48.32;98505.44;5041277;28;20049;-59
2022/06/23 11:22:18;;;;;;;5.97;2.08;;;;;;;28.02;48.37;98493.09;5042625;28;20432;-59
2022/06/23 11:25:28;;;;;;;12.82;3.30;;;;;;;28.04;46.78;98489.81;5044197;28;20120;-58
2022/06/23 11:27:53;;;;;;;12.40;4.60;;;;;;;28.05;44.90;98480.16;5045023;28;20094;-58
2022/06/23 11:30:48;;;;;;;9.90;2.50;;;;;;;27.91;45.19;98478.53;5038480;28;20080;-59
2022/06/23 11:33:35;;;;;;;11.23;2.10;;;;;;;27.83;45.92;98466.72;5037143;28;20093;-59
2022/06/23 11:36:25;;;;;;;7.65;1.88;;;;;;;27.77;45.59;98454.44;5041783;28;20128;-59
2022/06/23 11:39:14;;;;;;;6.65;1.88;;;;;;;27.82;45.60;98458.75;5042101;28;20054;-59
2022/06/23 11:42:05;;;;;;;7.80;2.03;;;;;;;27.82;45.58;98444.69;5041556;28;20080;-60
2022/06/23 11:44:47;;;;;;;5.40;1.60;;;;;;;27.81;45.44;98441.09;5014464;28;20132;-59
2022/06/23 11:47:33;;;;;;;5.60;1.50;;;;;;;27.79;45.45;98449.19;5051078;28;20058;-60
2022/06/23 11:50:36;;;;;;;7.13;1.30;;;;;;;27.84;45.09;98428.16;5099562;28;20162;-60
2022/06/23 11:53:37;;;;;;;4.68;1.50;;;;;;;27.86;45.05;98431.31;5101072;28;20550;-59
2022/06/23 11:56:17;;;;;;;8.65;1.77;;;;;;;27.86;44.91;98429.31;5105141;27;20101;-59
2022/06/23 11:59:04;;;;;;;5.00;1.40;;;;;;;27.88;44.95;98421.22;5097271;27;20036;-59
2022/06/23 12:01:30;;;;;;;5.97;1.45;;;;;;;27.91;45.43;98427.94;5097454;27;20108;-60
2022/06/23 12:04:12;;;;;;;4.38;1.27;;;;;;;27.85;45.61;98419.28;5104437;27;20436;-59
2022/06/23 12:06:59;;;;;;;2.67;1.00;;;;;;;27.86;45.72;98422.88;5103606;28;20605;-59
2022/06/23 12:09:42;;;;;;;3.85;1.00;;;;;;;27.88;45.83;98418.41;5096774;27;20469;-60
2022/06/23 12:12:08;;;;;;;6.97;1.67;;;;;;;27.90;45.65;98434.81;5104329;27;20036;-61
2022/06/23 12:14:35;;;;;;;3.95;1.10;;;;;;;27.90;46.34;98446.06;5107279;28;20049;-57
2022/06/23 12:17:07;;;;;;;3.50;1.30;;;;;;;27.91;46.11;98442.78;5105394;27;20496;-60
2022/06/23 12:19:45;;;;;;;3.42;1.30;;;;;;;27.93;46.24;98422.66;5107526;27;20134;-60
2022/06/23 12:22:21;;;;;;;5.82;1.40;;;;;;;27.88;46.46;98404.34;5103838;27;20535;-60
2022/06/23 12:25:02;;;;;;;3.75;1.27;;;;;;;27.87;46.10;98411.22;5102107;27;20181;-59
2022/06/23 12:27:50;;;;;;;2.92;1.02;;;;;;;27.87;46.00;98399.19;5101684;27;20036;-60
2022/06/23 12:30:19;;;;;;;3.80;1.30;;;;;;;27.87;46.02;98405.59;5102601;28;20047;-60
2022/06/23 12:32:53;;;;;;;2.47;1.17;;;;;;;27.84;45.35;98402.88;5094097;27;21778;-60
2022/06/23 12:35:24;;;;;;;2.85;1.20;;;;;;;27.56;45.25;98402.44;5095648;27;20521;-59